createdAt,value
2019-04-04T00:01:35.762Z,91.47
2019-04-04T00:04:04.350Z,92.23
2019-04-04T00:06:32.633Z,91.63
2019-04-04T00:09:01.991Z,88.57
2019-04-04T00:11:31.022Z,87.33
2019-04-04T00:13:59.398Z,78.67
2019-04-04T00:16:27.984Z,85.30
2019-04-04T00:18:58.470Z,86.87
2019-04-04T00:21:27.934Z,91.40
2019-04-04T00:23:56.260Z,88.73
2019-04-04T00:26:24.547Z,88.67
2019-04-04T00:28:53.160Z,89.13
2019-04-04T00:31:21.764Z,88.63
2019-04-04T00:33:50.427Z,89.83
2019-04-04T00:36:18.804Z,86.43
2019-04-04T00:38:47.385Z,87.03
2019-04-04T00:41:15.975Z,83.10
2019-04-04T00:43:44.264Z,83.47
2019-04-04T00:46:12.831Z,83.27
2019-04-04T00:48:41.446Z,84.70
2019-04-04T00:51:10.101Z,83.40
2019-04-04T00:53:38.378Z,81.30
2019-04-04T00:56:06.682Z,79.67
2019-04-04T00:58:34.971Z,82.63
2019-04-04T01:01:03.827Z,77.33
2019-04-04T01:03:32.418Z,76.03
2019-04-04T01:06:02.673Z,79.43
2019-04-04T01:08:30.727Z,76.40
2019-04-04T01:10:59.034Z,74.00
2019-04-04T01:13:27.778Z,73.80
2019-04-04T01:15:56.450Z,72.87
2019-04-04T01:18:24.766Z,71.57
2019-04-04T01:20:53.042Z,71.23
2019-04-04T01:23:21.332Z,68.63
2019-04-04T01:25:49.711Z,69.20
2019-04-04T01:28:18.347Z,69.87
2019-04-04T01:30:46.626Z,68.67
2019-04-04T01:33:15.208Z,70.63
2019-04-04T01:35:43.515Z,67.77
2019-04-04T01:38:12.071Z,65.93
2019-04-04T01:40:40.356Z,67.23
2019-04-04T01:43:09.346Z,64.03
2019-04-04T01:45:38.640Z,64.60
2019-04-04T01:48:07.039Z,62.63
2019-04-04T01:50:35.566Z,63.70
2019-04-04T01:53:03.902Z,62.83
2019-04-04T01:55:32.943Z,61.80
2019-04-04T01:58:02.572Z,59.30
2019-04-04T02:00:31.182Z,61.00
2019-04-04T02:02:59.574Z,59.23
2019-04-04T02:05:27.874Z,60.77
2019-04-04T02:07:56.228Z,60.77
2019-04-04T02:10:24.783Z,59.47
2019-04-04T02:12:53.368Z,58.70
2019-04-04T02:15:21.666Z,57.70
2019-04-04T02:17:52.660Z,58.50
2019-04-04T02:20:20.546Z,56.20
2019-04-04T02:22:48.850Z,53.97
2019-04-04T02:25:19.996Z,55.57
2019-04-04T02:27:48.331Z,53.33
2019-04-04T02:30:16.655Z,52.33
2019-04-04T02:32:45.419Z,52.43
2019-04-04T02:35:13.719Z,53.60
2019-04-04T02:37:42.008Z,51.00
2019-04-04T02:40:10.594Z,51.03
2019-04-04T02:42:39.231Z,52.27
2019-04-04T02:45:07.819Z,51.83
2019-04-04T02:47:36.404Z,50.10
2019-04-04T02:50:07.018Z,50.60
2019-04-04T02:52:35.728Z,49.70
2019-04-04T02:55:05.048Z,47.83
2019-04-04T02:57:33.712Z,49.03
2019-04-04T03:00:01.993Z,48.43
2019-04-04T03:02:30.306Z,48.13
2019-04-04T03:04:58.597Z,46.83
2019-04-04T03:07:29.828Z,45.90
2019-04-04T03:09:57.284Z,46.20
2019-04-04T03:12:26.796Z,46.27
2019-04-04T03:14:55.311Z,45.77
2019-04-04T03:17:23.649Z,46.23
2019-04-04T03:19:51.940Z,45.50
2019-04-04T03:22:20.235Z,44.37
2019-04-04T03:24:48.586Z,43.17
2019-04-04T03:27:16.893Z,43.33
2019-04-04T03:29:46.814Z,43.83
2019-04-04T03:32:16.775Z,41.97
2019-04-04T03:34:50.166Z,41.27
2019-04-04T03:37:15.476Z,42.73
2019-04-04T03:39:45.453Z,41.20
2019-04-04T03:42:13.779Z,40.60
2019-04-04T03:44:42.340Z,41.00
2019-04-04T03:47:11.392Z,38.27
2019-04-04T03:49:40.115Z,39.70
2019-04-04T03:52:11.180Z,40.13
2019-04-04T03:54:38.655Z,39.10
2019-04-04T03:57:11.104Z,38.00
2019-04-04T03:59:36.973Z,37.90
2019-04-04T04:02:05.604Z,37.83
2019-04-04T04:04:33.981Z,35.30
2019-04-04T04:07:02.290Z,37.23
2019-04-04T04:09:30.831Z,36.80
2019-04-04T04:11:59.122Z,34.73
2019-04-04T04:14:27.691Z,36.27
2019-04-04T04:16:55.969Z,35.67
2019-04-04T04:19:27.453Z,34.80
2019-04-04T04:21:54.313Z,35.20
2019-04-04T04:24:22.595Z,34.70
2019-04-04T04:26:51.219Z,33.33
2019-04-04T04:29:19.806Z,34.07
2019-04-04T04:31:49.288Z,34.63
2019-04-04T04:34:18.204Z,32.87
2019-04-04T04:36:48.010Z,33.13
2019-04-04T04:39:16.512Z,32.43
2019-04-04T04:41:44.825Z,32.07
2019-04-04T04:44:13.262Z,31.97
2019-04-04T04:46:41.576Z,32.57
2019-04-04T04:49:10.218Z,32.33
2019-04-04T04:51:38.795Z,32.07
2019-04-04T04:54:07.324Z,31.00
2019-04-04T04:56:35.614Z,29.27
2019-04-04T04:59:04.247Z,28.80
2019-04-04T05:01:32.598Z,30.40
2019-04-04T05:04:02.526Z,30.87
2019-04-04T05:06:35.367Z,35.00
2019-04-04T05:09:01.963Z,43.50
2019-04-04T05:11:30.546Z,36.60
2019-04-04T05:13:58.902Z,36.30
2019-04-04T05:16:27.201Z,35.20
2019-04-04T05:18:55.785Z,35.63
2019-04-04T05:21:25.547Z,34.23
2019-04-04T05:23:54.163Z,34.73
2019-04-04T05:26:22.867Z,36.40
2019-04-04T05:28:51.178Z,34.73
2019-04-04T05:31:19.519Z,38.00
2019-04-04T05:33:48.119Z,45.13
2019-04-04T05:36:16.417Z,46.47
2019-04-04T05:38:47.154Z,47.27
2019-04-04T05:41:16.397Z,46.93
2019-04-04T05:43:45.058Z,45.67
2019-04-04T05:46:13.420Z,45.40
2019-04-04T05:48:41.693Z,44.20
2019-04-04T05:51:09.988Z,45.90
2019-04-04T05:53:38.298Z,41.97
2019-04-04T05:56:06.909Z,40.70
2019-04-04T05:58:35.585Z,41.53
2019-04-04T06:01:05.334Z,39.23
2019-04-04T06:03:33.980Z,41.37
2019-04-04T06:06:02.586Z,42.77
2019-04-04T06:08:30.931Z,45.33
2019-04-04T06:10:59.564Z,42.60
2019-04-04T06:13:27.945Z,44.40
2019-04-04T06:15:56.225Z,43.73
2019-04-04T06:18:25.772Z,44.27
2019-04-04T06:20:54.055Z,44.13
2019-04-04T06:23:23.081Z,43.37
2019-04-04T06:25:52.379Z,44.63
2019-04-04T06:28:20.951Z,54.37
2019-04-04T06:30:49.256Z,52.93
2019-04-04T06:33:17.620Z,53.70
2019-04-04T06:35:47.914Z,47.40
2019-04-04T06:38:16.193Z,47.20
2019-04-04T06:40:44.795Z,46.83
2019-04-04T06:43:13.367Z,44.70
2019-04-04T06:45:41.653Z,44.03
2019-04-04T06:48:09.946Z,44.13
2019-04-04T06:50:40.082Z,41.10
2019-04-04T06:53:08.281Z,42.90
2019-04-04T06:55:39.926Z,42.40
2019-04-04T06:58:09.437Z,39.70
2019-04-04T07:00:36.943Z,39.33
2019-04-04T07:03:05.234Z,38.03
2019-04-04T07:05:33.913Z,38.07
2019-04-04T07:08:02.203Z,36.03
2019-04-04T07:10:30.575Z,34.90
2019-04-04T07:13:14.587Z,97.17
2019-04-04T07:15:29.259Z,61.83
2019-04-04T07:17:57.835Z,63.17
2019-04-04T07:20:28.383Z,62.20
2019-04-04T07:22:56.441Z,61.23
2019-04-04T07:25:25.017Z,58.43
2019-04-04T07:27:53.302Z,48.87
2019-04-04T07:30:21.606Z,46.60
2019-04-04T07:32:49.905Z,50.17
2019-04-04T07:35:20.930Z,63.87
2019-04-04T07:37:48.568Z,59.20
2019-04-04T07:40:16.864Z,66.60
2019-04-04T07:42:47.989Z,54.57
2019-04-04T07:45:15.181Z,45.10
2019-04-04T07:47:46.646Z,41.83
2019-04-04T07:50:13.576Z,40.87
2019-04-04T07:52:41.874Z,38.50
2019-04-04T07:55:10.998Z,38.30
2019-04-04T07:57:39.432Z,33.63
2019-04-04T08:00:08.480Z,30.07
2019-04-04T08:02:36.811Z,29.23
2019-04-04T08:05:07.879Z,28.30
2019-04-04T08:07:36.474Z,31.93
2019-04-04T08:10:06.259Z,31.57
2019-04-04T08:12:34.870Z,44.00
2019-04-04T08:15:03.786Z,33.90
2019-04-04T08:17:32.081Z,31.67
2019-04-04T08:20:00.452Z,36.73
2019-04-04T08:22:28.823Z,33.97
2019-04-04T08:24:57.101Z,32.23
2019-04-04T08:27:25.408Z,28.33
2019-04-04T08:29:53.690Z,31.77
2019-04-04T08:32:21.987Z,38.97
2019-04-04T08:34:50.378Z,34.60
2019-04-04T08:37:18.965Z,32.40
2019-04-04T08:39:47.563Z,38.30
2019-04-04T08:42:15.843Z,45.83
2019-04-04T08:44:44.146Z,47.30
2019-04-04T08:47:12.785Z,48.17
2019-04-04T08:49:41.094Z,46.93
2019-04-04T08:52:16.578Z,40.70
2019-04-04T08:54:39.932Z,39.33
2019-04-04T08:57:08.558Z,37.10
2019-04-04T08:59:37.098Z,37.57
2019-04-04T09:02:05.434Z,38.10
2019-04-04T09:04:34.002Z,36.17
2019-04-04T09:07:02.298Z,38.20
2019-04-04T09:09:31.215Z,56.37
2019-04-04T09:12:01.191Z,62.87
2019-04-04T09:14:29.491Z,70.23
2019-04-04T09:16:57.777Z,66.93
2019-04-04T09:19:26.427Z,65.70
2019-04-04T09:21:55.009Z,61.57
2019-04-04T09:24:23.294Z,57.03
2019-04-04T09:26:51.870Z,55.10
2019-04-04T09:29:20.158Z,50.47
2019-04-04T09:31:48.480Z,50.20
2019-04-04T09:34:17.111Z,49.70
2019-04-04T09:36:45.390Z,52.60
2019-04-04T09:39:13.693Z,59.97
2019-04-04T09:41:42.008Z,60.40
2019-04-04T09:44:10.307Z,52.57
2019-04-04T09:46:38.843Z,53.20
2019-04-04T09:49:07.490Z,49.67
2019-04-04T09:51:36.067Z,48.17
2019-04-04T09:54:04.350Z,48.33
2019-04-04T09:56:32.934Z,46.47
2019-04-04T09:59:01.231Z,47.33
2019-04-04T10:01:29.907Z,45.17
2019-04-04T10:03:58.579Z,45.33
2019-04-04T10:06:27.167Z,44.73
2019-04-04T10:08:55.450Z,39.87
2019-04-04T10:11:24.036Z,37.70
2019-04-04T10:13:52.606Z,37.67
2019-04-04T10:16:20.908Z,35.23
2019-04-04T10:18:49.192Z,33.93
2019-04-04T10:21:17.491Z,32.33
2019-04-04T10:23:45.778Z,28.77
2019-04-04T10:26:14.100Z,32.93
2019-04-04T10:28:42.686Z,36.20
2019-04-04T10:31:10.998Z,47.33
2019-04-04T10:33:42.091Z,56.17
2019-04-04T10:36:09.310Z,53.60
2019-04-04T10:38:37.614Z,47.33
2019-04-04T10:41:05.920Z,45.20
2019-04-04T10:43:34.570Z,38.70
2019-04-04T10:48:45.286Z,36.13
2019-04-04T10:51:13.838Z,34.27
2019-04-04T10:53:42.463Z,36.30
2019-04-04T10:56:11.034Z,34.47
2019-04-04T10:58:39.314Z,36.47
2019-04-04T11:01:07.890Z,39.83
2019-04-04T11:03:36.206Z,40.37
2019-04-04T11:06:04.841Z,40.27
2019-04-04T11:08:33.611Z,38.47
2019-04-04T11:11:02.183Z,41.17
2019-04-04T11:13:33.662Z,42.10
2019-04-04T11:16:00.838Z,42.03
2019-04-04T11:18:29.118Z,40.43
2019-04-04T11:20:57.441Z,40.47
2019-04-04T11:23:25.733Z,43.83
2019-04-04T11:25:54.024Z,38.83
2019-04-04T11:28:22.335Z,38.63
2019-04-04T11:30:52.037Z,37.27
2019-04-04T11:33:20.387Z,38.40
2019-04-04T11:35:48.929Z,39.70
2019-04-04T11:38:17.566Z,41.93
2019-04-04T11:40:45.890Z,42.67
2019-04-04T11:43:14.170Z,43.80
2019-04-04T11:45:42.458Z,42.97
2019-04-04T11:48:10.817Z,42.97
2019-04-04T11:50:39.923Z,40.77
2019-04-04T11:53:08.859Z,40.20
2019-04-04T11:55:37.189Z,41.10
2019-04-04T11:58:05.488Z,39.43
2019-04-04T12:00:38.812Z,39.70
2019-04-04T12:03:07.398Z,38.57
2019-04-04T12:05:38.739Z,38.87
2019-04-04T12:08:07.145Z,36.60
2019-04-04T12:10:35.542Z,38.03
2019-04-04T12:13:03.869Z,36.10
2019-04-04T12:15:32.218Z,35.53
2019-04-04T12:18:00.508Z,34.43
2019-04-04T12:20:29.218Z,32.83
2019-04-04T12:22:57.503Z,33.73
2019-04-04T12:25:26.089Z,32.40
2019-04-04T12:27:54.668Z,31.17
2019-04-04T12:30:22.975Z,32.17
2019-04-04T12:32:51.681Z,30.77
2019-04-04T12:35:20.085Z,29.50
2019-04-04T12:37:48.395Z,30.13
2019-04-04T12:40:20.860Z,29.03
2019-04-04T12:42:47.105Z,29.47
2019-04-04T12:45:15.883Z,28.03
2019-04-04T12:47:44.450Z,27.77
2019-04-04T12:50:13.903Z,26.77
2019-04-04T12:52:42.542Z,26.73
2019-04-04T12:55:11.144Z,25.50
2019-04-04T12:57:39.706Z,25.93
2019-04-04T13:00:08.874Z,24.50
2019-04-04T13:02:37.162Z,24.07
2019-04-04T13:05:07.949Z,24.53
2019-04-04T13:07:36.322Z,24.27
2019-04-04T13:10:11.738Z,23.60
2019-04-04T13:12:37.062Z,23.37
2019-04-04T13:15:07.499Z,25.00
2019-04-04T13:17:36.158Z,33.87
2019-04-04T13:20:06.334Z,35.77
2019-04-04T13:22:35.006Z,42.10
2019-04-04T13:25:04.662Z,38.67
2019-04-04T13:27:33.477Z,38.13
2019-04-04T13:30:01.761Z,36.33
2019-04-04T13:32:30.180Z,33.27
2019-04-04T13:34:59.824Z,34.37
2019-04-04T13:37:28.756Z,30.77
2019-04-04T13:39:57.519Z,27.70
2019-04-04T13:42:25.887Z,24.97
2019-04-04T13:44:54.163Z,23.03
2019-04-04T13:47:22.486Z,13.90
2019-04-04T13:49:51.247Z,12.23
2019-04-04T13:52:19.518Z,11.57
2019-04-04T13:54:47.821Z,11.53
2019-04-04T13:57:16.143Z,11.15
2019-04-04T13:59:44.751Z,10.20
2019-04-04T14:02:13.340Z,7.97
2019-04-04T14:04:41.920Z,8.17
2019-04-04T14:07:10.249Z,7.37
2019-04-04T14:09:38.878Z,6.43
2019-04-04T14:12:07.157Z,5.40
2019-04-04T14:14:35.484Z,4.57
2019-04-04T14:17:03.784Z,3.80
2019-04-04T14:19:32.398Z,4.30
2019-04-04T14:22:00.682Z,4.20
2019-04-04T14:24:29.260Z,4.90
2019-04-04T14:26:57.847Z,5.03
2019-04-04T14:29:27.787Z,4.83
2019-04-04T14:31:56.644Z,3.90
2019-04-04T14:34:25.225Z,4.70
2019-04-04T14:36:53.805Z,4.77
2019-04-04T14:39:34.819Z,4.20
2019-04-04T14:42:03.187Z,4.87
2019-04-04T14:44:31.527Z,4.70
2019-04-04T14:47:00.127Z,4.50
2019-04-04T14:49:28.719Z,4.90
2019-04-04T14:51:56.997Z,4.47
2019-04-04T14:54:29.045Z,4.83
2019-04-04T14:56:55.294Z,4.73
2019-04-04T14:59:23.583Z,4.87
2019-04-04T15:01:51.876Z,5.00
2019-04-04T15:04:21.026Z,4.70
2019-04-04T15:06:49.731Z,4.77
2019-04-04T15:09:18.307Z,7.00
2019-04-04T15:11:46.824Z,8.27
2019-04-04T15:14:15.188Z,9.77
2019-04-04T15:16:43.606Z,10.60
2019-04-04T15:19:11.985Z,10.40
2019-04-04T15:21:40.304Z,9.47
2019-04-04T15:24:09.017Z,9.53
2019-04-04T15:26:37.895Z,8.70
2019-04-04T15:29:06.473Z,9.37
2019-04-04T15:31:35.592Z,8.87
2019-04-04T15:34:04.378Z,9.43
2019-04-04T15:36:33.061Z,10.30
2019-04-04T15:39:01.831Z,12.27
2019-04-04T15:41:36.743Z,13.67
2019-04-04T15:44:00.562Z,13.40
2019-04-04T15:46:29.214Z,13.23
2019-04-04T15:48:57.524Z,11.50
2019-04-04T15:51:26.175Z,11.30
2019-04-04T15:53:54.759Z,11.53
2019-04-04T15:56:23.355Z,10.50
2019-04-04T15:58:51.630Z,14.00
2019-04-04T16:01:20.301Z,14.73
2019-04-04T16:03:48.911Z,16.17
2019-04-04T16:06:17.320Z,17.40
2019-04-04T16:08:45.758Z,18.67
2019-04-04T16:11:14.343Z,18.17
2019-04-04T16:13:43.128Z,18.20
2019-04-04T16:16:11.423Z,18.67
2019-04-04T16:18:39.747Z,17.40
2019-04-04T16:21:08.476Z,17.30
2019-04-04T16:23:37.789Z,18.83
2019-04-04T16:26:06.466Z,16.30
2019-04-04T16:28:35.134Z,16.97
2019-04-04T16:31:03.879Z,16.40
2019-04-04T16:33:33.000Z,15.67
2019-04-04T16:36:01.771Z,16.27
2019-04-04T16:38:30.514Z,14.27
2019-04-04T16:41:00.510Z,16.90
2019-04-04T16:43:29.911Z,28.57
2019-04-04T16:45:58.271Z,38.30
2019-04-04T16:48:26.666Z,36.13
2019-04-04T16:50:54.950Z,36.97
2019-04-04T16:53:24.575Z,29.20
2019-04-04T16:55:52.864Z,32.13
2019-04-04T16:58:21.524Z,31.47
2019-04-04T17:00:50.310Z,28.97
2019-04-04T17:03:19.246Z,28.57
2019-04-04T17:05:47.721Z,26.97
2019-04-04T17:08:16.023Z,26.00
2019-04-04T17:10:44.862Z,26.93
2019-04-04T17:13:14.527Z,26.87
2019-04-04T17:15:43.268Z,27.23
2019-04-04T17:18:12.340Z,26.70
2019-04-04T17:20:40.814Z,25.23
2019-04-04T17:23:09.361Z,26.37
2019-04-04T17:25:38.203Z,25.07
2019-04-04T17:28:06.877Z,23.63
2019-04-04T17:30:35.853Z,23.13
2019-04-04T17:33:06.317Z,24.20
2019-04-04T17:35:34.872Z,20.30
2019-04-04T17:38:03.869Z,35.40
2019-04-04T17:40:32.383Z,31.83
2019-04-04T17:43:01.245Z,27.77
2019-04-04T17:45:30.061Z,57.90
2019-04-04T17:47:59.132Z,65.50
2019-04-04T17:50:27.818Z,61.80
2019-04-04T17:52:56.121Z,59.57
2019-04-04T17:55:24.469Z,59.57
2019-04-04T17:57:53.159Z,54.63
2019-04-04T18:00:22.129Z,54.73
2019-04-04T18:02:50.958Z,54.40
2019-04-04T18:05:19.337Z,54.27
2019-04-04T18:07:47.711Z,50.73
2019-04-04T18:10:16.100Z,49.30
2019-04-04T18:12:44.771Z,49.07
2019-04-04T18:15:13.065Z,47.60
2019-04-04T18:17:41.375Z,46.30
2019-04-04T18:20:10.046Z,45.67
2019-04-04T18:22:39.681Z,44.33
2019-04-04T18:25:08.868Z,43.23
2019-04-04T18:27:37.171Z,40.83
2019-04-04T18:30:09.062Z,40.33
2019-04-04T18:32:40.205Z,39.77
2019-04-04T18:35:08.604Z,41.20
2019-04-04T18:37:37.126Z,40.10
2019-04-04T18:40:07.706Z,43.57
2019-04-04T18:42:37.729Z,66.10
2019-04-04T18:45:06.734Z,59.47
2019-04-04T18:47:35.294Z,60.40
2019-04-04T18:50:04.475Z,61.30
2019-04-04T18:52:32.784Z,57.27
2019-04-04T18:55:01.476Z,49.70
2019-04-04T18:57:29.876Z,49.07
2019-04-04T18:59:58.199Z,54.90
2019-04-04T19:02:26.582Z,45.23
2019-04-04T19:04:55.942Z,62.37
2019-04-04T19:07:24.522Z,59.40
2019-04-04T19:09:52.898Z,56.10
2019-04-04T19:12:24.522Z,45.37
2019-04-04T19:14:52.879Z,47.37
2019-04-04T19:17:21.581Z,48.63
2019-04-04T19:19:50.151Z,46.57
2019-04-04T19:22:20.415Z,45.33
2019-04-04T19:24:48.821Z,42.83
2019-04-04T19:27:17.218Z,43.40
2019-04-04T19:29:45.930Z,43.40
2019-04-04T19:32:14.767Z,40.27
2019-04-04T19:34:43.808Z,39.47
2019-04-04T19:37:12.696Z,36.70
2019-04-04T19:39:41.282Z,38.83
2019-04-04T19:42:09.883Z,44.07
2019-04-04T19:44:38.640Z,48.37
2019-04-04T19:47:07.448Z,43.63
2019-04-04T19:49:36.028Z,49.40
2019-04-04T19:52:04.963Z,53.37
2019-04-04T19:54:33.624Z,51.67
2019-04-04T19:57:02.248Z,47.20
2019-04-04T19:59:30.631Z,51.90
2019-04-04T20:01:59.378Z,56.40
2019-04-04T20:04:27.695Z,56.70
2019-04-04T20:06:56.326Z,55.83
2019-04-04T20:09:24.635Z,52.70
2019-04-04T20:11:52.945Z,57.73
2019-04-04T20:14:21.791Z,59.73
2019-04-04T20:16:50.460Z,56.93
2019-04-04T20:19:18.758Z,60.40
2019-04-04T20:21:47.093Z,67.83
2019-04-04T20:24:15.388Z,87.73
2019-04-04T20:26:44.089Z,85.07
2019-04-04T20:29:12.641Z,87.77
2019-04-04T20:31:41.362Z,76.20
2019-04-04T20:34:11.425Z,78.50
2019-04-04T20:36:39.775Z,81.93
2019-04-04T20:39:08.595Z,82.23
2019-04-04T20:41:38.993Z,79.03
2019-04-04T20:44:07.551Z,74.07
2019-04-04T20:46:36.261Z,73.20
2019-04-04T20:49:04.917Z,66.37
2019-04-04T20:51:33.831Z,62.03
2019-04-04T20:54:02.902Z,63.47
2019-04-04T20:56:31.778Z,58.70
2019-04-04T20:59:00.156Z,60.27
2019-04-04T21:01:31.693Z,65.83
2019-04-04T21:04:00.303Z,74.00
2019-04-04T21:06:29.280Z,102.50
2019-04-04T21:08:58.622Z,95.20
2019-04-04T21:11:27.171Z,91.50
2019-04-04T21:13:56.723Z,84.40
2019-04-04T21:16:25.251Z,82.40
2019-04-04T21:18:53.574Z,80.60
2019-04-04T21:21:22.231Z,81.37
2019-04-04T21:23:50.525Z,73.07
2019-04-04T21:26:19.175Z,73.77
2019-04-04T21:28:47.766Z,70.57
2019-04-04T21:31:16.062Z,65.93
2019-04-04T21:33:44.349Z,58.97
2019-04-04T21:36:13.006Z,60.27
2019-04-04T21:38:41.803Z,52.77
2019-04-04T21:41:10.107Z,66.67
2019-04-04T21:43:38.401Z,54.03
2019-04-04T21:46:26.390Z,63.10
2019-04-04T21:48:54.676Z,57.90
2019-04-04T21:51:23.243Z,57.30
2019-04-04T21:53:51.529Z,58.13
2019-04-04T21:56:19.823Z,58.00
2019-04-04T21:58:48.222Z,68.10
2019-04-04T22:01:16.692Z,64.53
2019-04-04T22:03:44.971Z,68.57
2019-04-04T22:06:13.621Z,60.60
2019-04-04T22:08:41.923Z,62.53
2019-04-04T22:11:10.478Z,64.50
2019-04-04T22:13:38.765Z,75.77
2019-04-04T22:16:07.081Z,80.53
2019-04-04T22:18:35.411Z,96.47
2019-04-04T22:21:04.104Z,99.53
2019-04-04T22:23:32.396Z,91.93
2019-04-04T22:26:00.974Z,97.30
2019-04-04T22:28:29.542Z,97.90
2019-04-04T22:30:58.126Z,97.20
2019-04-04T22:33:26.415Z,95.03
2019-04-04T22:35:54.797Z,93.30
2019-04-04T22:38:23.672Z,91.93
2019-04-04T22:40:51.972Z,89.53
2019-04-04T22:43:20.277Z,92.73
2019-04-04T22:45:48.593Z,90.53
2019-04-04T22:48:19.972Z,89.93
2019-04-04T22:50:48.248Z,86.57
2019-04-04T22:53:16.546Z,88.03
2019-04-04T22:55:44.841Z,88.20
2019-04-04T22:58:13.474Z,87.97
2019-04-04T23:00:41.842Z,83.17
2019-04-04T23:03:10.645Z,50.80
2019-04-04T23:05:39.430Z,45.13
2019-04-04T23:08:07.788Z,64.57
2019-04-04T23:10:36.390Z,69.63
2019-04-04T23:13:04.977Z,70.50
2019-04-04T23:15:33.379Z,65.77
2019-04-04T23:18:01.944Z,96.10
2019-04-04T23:20:30.244Z,93.77
2019-04-04T23:23:01.063Z,98.40
2019-04-04T23:25:28.818Z,97.13
2019-04-04T23:27:58.715Z,96.47
2019-04-04T23:30:27.094Z,92.67
2019-04-04T23:32:55.412Z,90.53
2019-04-04T23:35:23.972Z,95.30
2019-04-04T23:37:52.656Z,102.47
2019-04-04T23:40:21.349Z,100.00
2019-04-04T23:42:49.705Z,101.30
2019-04-04T23:45:18.003Z,98.13
2019-04-04T23:47:46.297Z,97.97
2019-04-04T23:50:14.590Z,94.70
2019-04-04T23:52:42.892Z,92.43
2019-04-04T23:55:11.507Z,85.93
2019-04-04T23:57:39.785Z,93.17
